sensor_id;sensor_type;location;lat;lon;timestamp;temperature;humidity
9949;DHT22;5013;51.840;8.276;2023-11-19T00:00:27;9.20;99.90
9949;DHT22;5013;51.840;8.276;2023-11-19T00:02:52;9.20;99.90
9949;DHT22;5013;51.840;8.276;2023-11-19T00:05:18;9.20;99.90
9949;DHT22;5013;51.840;8.276;2023-11-19T00:07:44;9.30;99.90
9949;DHT22;5013;51.840;8.276;2023-11-19T00:10:16;9.20;99.90
9949;DHT22;5013;51.840;8.276;2023-11-19T00:12:46;9.20;99.90
9949;DHT22;5013;51.840;8.276;2023-11-19T00:15:12;9.30;99.90
9949;DHT22;5013;51.840;8.276;2023-11-19T00:17:39;9.30;99.90
9949;DHT22;5013;51.840;8.276;2023-11-19T00:20:12;9.30;99.90
9949;DHT22;5013;51.840;8.276;2023-11-19T00:22:38;9.30;99.90
9949;DHT22;5013;51.840;8.276;2023-11-19T00:25:04;9.30;99.90
9949;DHT22;5013;51.840;8.276;2023-11-19T00:27:30;9.40;99.90
9949;DHT22;5013;51.840;8.276;2023-11-19T00:29:56;9.40;99.90
9949;DHT22;5013;51.840;8.276;2023-11-19T00:32:22;9.40;99.90
9949;DHT22;5013;51.840;8.276;2023-11-19T00:34:48;9.40;99.90
9949;DHT22;5013;51.840;8.276;2023-11-19T00:37:14;9.40;99.90
9949;DHT22;5013;51.840;8.276;2023-11-19T00:39:41;9.50;99.90
9949;DHT22;5013;51.840;8.276;2023-11-19T00:42:06;9.40;99.90
9949;DHT22;5013;51.840;8.276;2023-11-19T00:44:32;9.50;99.90
9949;DHT22;5013;51.840;8.276;2023-11-19T00:46:57;9.50;99.90
9949;DHT22;5013;51.840;8.276;2023-11-19T00:49:23;9.50;99.90
9949;DHT22;5013;51.840;8.276;2023-11-19T00:51:49;9.60;99.90
9949;DHT22;5013;51.840;8.276;2023-11-19T00:54:14;9.50;99.90
9949;DHT22;5013;51.840;8.276;2023-11-19T00:56:40;9.50;99.90
9949;DHT22;5013;51.840;8.276;2023-11-19T00:59:06;9.50;99.90
9949;DHT22;5013;51.840;8.276;2023-11-19T01:01:31;9.50;99.90
9949;DHT22;5013;51.840;8.276;2023-11-19T01:03:57;9.60;99.90
9949;DHT22;5013;51.840;8.276;2023-11-19T01:06:30;9.60;99.90
9949;DHT22;5013;51.840;8.276;2023-11-19T01:08:56;9.60;99.90
9949;DHT22;5013;51.840;8.276;2023-11-19T01:11:22;9.60;99.90
9949;DHT22;5013;51.840;8.276;2023-11-19T01:13:49;9.70;99.90
9949;DHT22;5013;51.840;8.276;2023-11-19T01:16:15;9.70;99.90
9949;DHT22;5013;51.840;8.276;2023-11-19T01:18:40;9.80;99.90
9949;DHT22;5013;51.840;8.276;2023-11-19T01:21:06;9.80;99.90
9949;DHT22;5013;51.840;8.276;2023-11-19T01:23:32;9.80;99.90
9949;DHT22;5013;51.840;8.276;2023-11-19T01:25:58;9.80;99.90
9949;DHT22;5013;51.840;8.276;2023-11-19T01:28:24;9.90;99.90
9949;DHT22;5013;51.840;8.276;2023-11-19T01:30:52;9.90;99.90
9949;DHT22;5013;51.840;8.276;2023-11-19T01:33:18;9.90;99.90
9949;DHT22;5013;51.840;8.276;2023-11-19T01:35:44;9.90;99.90
9949;DHT22;5013;51.840;8.276;2023-11-19T01:38:10;9.90;99.90
9949;DHT22;5013;51.840;8.276;2023-11-19T01:40:36;10.00;99.90
9949;DHT22;5013;51.840;8.276;2023-11-19T01:43:02;10.00;99.90
9949;DHT22;5013;51.840;8.276;2023-11-19T01:45:29;10.00;99.90
9949;DHT22;5013;51.840;8.276;2023-11-19T01:47:56;10.00;99.90
9949;DHT22;5013;51.840;8.276;2023-11-19T01:50:23;10.00;99.90
9949;DHT22;5013;51.840;8.276;2023-11-19T01:52:53;10.10;99.90
9949;DHT22;5013;51.840;8.276;2023-11-19T01:55:20;10.10;99.90
9949;DHT22;5013;51.840;8.276;2023-11-19T01:57:47;10.10;99.90
9949;DHT22;5013;51.840;8.276;2023-11-19T02:00:13;10.10;99.90
9949;DHT22;5013;51.840;8.276;2023-11-19T02:02:40;10.10;99.90
9949;DHT22;5013;51.840;8.276;2023-11-19T02:05:06;10.10;99.90
9949;DHT22;5013;51.840;8.276;2023-11-19T02:07:32;10.10;99.90
9949;DHT22;5013;51.840;8.276;2023-11-19T02:09:57;10.20;99.90
9949;DHT22;5013;51.840;8.276;2023-11-19T02:12:28;10.20;99.90
9949;DHT22;5013;51.840;8.276;2023-11-19T02:14:54;10.20;99.90
9949;DHT22;5013;51.840;8.276;2023-11-19T02:17:29;10.30;99.90
9949;DHT22;5013;51.840;8.276;2023-11-19T02:19:57;10.30;99.90
9949;DHT22;5013;51.840;8.276;2023-11-19T02:22:24;10.30;99.90
9949;DHT22;5013;51.840;8.276;2023-11-19T02:24:57;10.30;99.90
9949;DHT22;5013;51.840;8.276;2023-11-19T02:30:12;10.40;99.90
9949;DHT22;5013;51.840;8.276;2023-11-19T02:32:41;10.40;99.90
9949;DHT22;5013;51.840;8.276;2023-11-19T02:35:07;10.40;99.90
9949;DHT22;5013;51.840;8.276;2023-11-19T02:37:37;10.40;99.90
9949;DHT22;5013;51.840;8.276;2023-11-19T02:40:04;10.40;99.90
9949;DHT22;5013;51.840;8.276;2023-11-19T02:42:31;10.50;99.90
9949;DHT22;5013;51.840;8.276;2023-11-19T02:44:57;10.50;99.90
9949;DHT22;5013;51.840;8.276;2023-11-19T02:47:22;10.50;99.90
9949;DHT22;5013;51.840;8.276;2023-11-19T02:49:49;10.50;99.90
9949;DHT22;5013;51.840;8.276;2023-11-19T02:52:15;10.60;99.90
9949;DHT22;5013;51.840;8.276;2023-11-19T02:54:42;10.70;99.90
9949;DHT22;5013;51.840;8.276;2023-11-19T02:57:08;10.70;99.90
9949;DHT22;5013;51.840;8.276;2023-11-19T02:59:39;10.70;99.90
9949;DHT22;5013;51.840;8.276;2023-11-19T03:02:07;10.80;99.90
9949;DHT22;5013;51.840;8.276;2023-11-19T03:04:37;10.80;99.90
9949;DHT22;5013;51.840;8.276;2023-11-19T03:07:05;10.90;99.90
9949;DHT22;5013;51.840;8.276;2023-11-19T03:09:30;10.90;99.90
9949;DHT22;5013;51.840;8.276;2023-11-19T03:11:56;11.00;99.90
9949;DHT22;5013;51.840;8.276;2023-11-19T03:14:21;11.00;99.90
9949;DHT22;5013;51.840;8.276;2023-11-19T03:16:48;11.00;99.90
9949;DHT22;5013;51.840;8.276;2023-11-19T03:19:13;11.00;99.90
9949;DHT22;5013;51.840;8.276;2023-11-19T03:21:39;11.00;99.90
9949;DHT22;5013;51.840;8.276;2023-11-19T03:24:05;11.00;99.90
9949;DHT22;5013;51.840;8.276;2023-11-19T03:26:30;11.10;99.90
9949;DHT22;5013;51.840;8.276;2023-11-19T03:28:56;11.10;99.90
9949;DHT22;5013;51.840;8.276;2023-11-19T03:31:22;11.20;99.90
9949;DHT22;5013;51.840;8.276;2023-11-19T03:33:48;11.20;99.90
9949;DHT22;5013;51.840;8.276;2023-11-19T03:36:13;11.20;99.90
9949;DHT22;5013;51.840;8.276;2023-11-19T03:38:39;11.30;99.90
9949;DHT22;5013;51.840;8.276;2023-11-19T03:41:12;11.30;99.90
9949;DHT22;5013;51.840;8.276;2023-11-19T03:43:38;11.30;99.90
9949;DHT22;5013;51.840;8.276;2023-11-19T03:46:04;11.30;99.90
9949;DHT22;5013;51.840;8.276;2023-11-19T03:48:31;11.30;99.90
9949;DHT22;5013;51.840;8.276;2023-11-19T03:50:56;11.30;99.90
9949;DHT22;5013;51.840;8.276;2023-11-19T03:53:22;11.30;99.90
9949;DHT22;5013;51.840;8.276;2023-11-19T03:55:49;11.30;99.90
9949;DHT22;5013;51.840;8.276;2023-11-19T03:58:15;11.40;99.90
9949;DHT22;5013;51.840;8.276;2023-11-19T04:00:40;11.40;99.90
9949;DHT22;5013;51.840;8.276;2023-11-19T04:03:06;11.40;99.90
9949;DHT22;5013;51.840;8.276;2023-11-19T04:05:32;11.40;99.90
9949;DHT22;5013;51.840;8.276;2023-11-19T04:07:57;11.50;99.90
9949;DHT22;5013;51.840;8.276;2023-11-19T04:10:23;11.50;99.90
9949;DHT22;5013;51.840;8.276;2023-11-19T04:12:49;11.50;99.90
9949;DHT22;5013;51.840;8.276;2023-11-19T04:15:14;11.50;99.90
9949;DHT22;5013;51.840;8.276;2023-11-19T04:17:41;11.50;99.90
9949;DHT22;5013;51.840;8.276;2023-11-19T04:20:07;11.50;99.90
9949;DHT22;5013;51.840;8.276;2023-11-19T04:22:36;11.50;99.90
9949;DHT22;5013;51.840;8.276;2023-11-19T04:25:01;11.60;99.90
9949;DHT22;5013;51.840;8.276;2023-11-19T04:27:27;11.60;99.90
9949;DHT22;5013;51.840;8.276;2023-11-19T04:29:52;11.60;99.90
9949;DHT22;5013;51.840;8.276;2023-11-19T04:32:18;11.60;99.90
9949;DHT22;5013;51.840;8.276;2023-11-19T04:34:44;11.60;99.90
9949;DHT22;5013;51.840;8.276;2023-11-19T04:37:10;11.50;99.90
9949;DHT22;5013;51.840;8.276;2023-11-19T04:39:35;11.50;99.90
9949;DHT22;5013;51.840;8.276;2023-11-19T04:42:02;11.60;99.90
9949;DHT22;5013;51.840;8.276;2023-11-19T04:44:29;11.60;99.90
9949;DHT22;5013;51.840;8.276;2023-11-19T04:46:55;11.60;99.90
9949;DHT22;5013;51.840;8.276;2023-11-19T04:49:21;11.50;99.90
9949;DHT22;5013;51.840;8.276;2023-11-19T04:51:46;11.50;99.90
9949;DHT22;5013;51.840;8.276;2023-11-19T04:54:12;11.50;99.90
9949;DHT22;5013;51.840;8.276;2023-11-19T04:56:38;11.60;99.90
9949;DHT22;5013;51.840;8.276;2023-11-19T04:59:05;11.50;99.90
9949;DHT22;5013;51.840;8.276;2023-11-19T05:01:34;11.60;99.90
9949;DHT22;5013;51.840;8.276;2023-11-19T05:04:00;11.60;99.90
9949;DHT22;5013;51.840;8.276;2023-11-19T05:06:27;11.50;99.90
9949;DHT22;5013;51.840;8.276;2023-11-19T05:08:53;11.50;99.90
9949;DHT22;5013;51.840;8.276;2023-11-19T05:11:19;11.50;99.90
9949;DHT22;5013;51.840;8.276;2023-11-19T05:13:45;11.60;99.90
9949;DHT22;5013;51.840;8.276;2023-11-19T05:16:11;11.60;99.90
9949;DHT22;5013;51.840;8.276;2023-11-19T05:18:39;11.50;99.90
9949;DHT22;5013;51.840;8.276;2023-11-19T05:21:05;11.40;99.90
9949;DHT22;5013;51.840;8.276;2023-11-19T05:23:31;11.40;99.90
9949;DHT22;5013;51.840;8.276;2023-11-19T05:25:56;11.50;99.90
9949;DHT22;5013;51.840;8.276;2023-11-19T05:28:23;11.40;99.90
9949;DHT22;5013;51.840;8.276;2023-11-19T05:30:49;11.50;99.90
9949;DHT22;5013;51.840;8.276;2023-11-19T05:33:15;11.40;99.90
9949;DHT22;5013;51.840;8.276;2023-11-19T05:35:41;11.50;99.90
9949;DHT22;5013;51.840;8.276;2023-11-19T05:38:06;11.50;99.90
9949;DHT22;5013;51.840;8.276;2023-11-19T05:40:32;11.50;99.90
9949;DHT22;5013;51.840;8.276;2023-11-19T05:42:58;11.40;99.90
9949;DHT22;5013;51.840;8.276;2023-11-19T05:45:23;11.50;99.90
9949;DHT22;5013;51.840;8.276;2023-11-19T05:47:49;11.50;99.90
9949;DHT22;5013;51.840;8.276;2023-11-19T05:50:14;11.50;99.90
9949;DHT22;5013;51.840;8.276;2023-11-19T05:52:40;11.50;99.90
9949;DHT22;5013;51.840;8.276;2023-11-19T05:55:06;11.50;99.90
9949;DHT22;5013;51.840;8.276;2023-11-19T05:57:38;11.50;99.90
9949;DHT22;5013;51.840;8.276;2023-11-19T06:00:05;11.50;99.90
9949;DHT22;5013;51.840;8.276;2023-11-19T06:02:33;11.50;99.90
9949;DHT22;5013;51.840;8.276;2023-11-19T06:04:58;11.40;99.90
9949;DHT22;5013;51.840;8.276;2023-11-19T06:07:25;11.40;99.90
9949;DHT22;5013;51.840;8.276;2023-11-19T06:09:50;11.40;99.90
9949;DHT22;5013;51.840;8.276;2023-11-19T06:12:17;11.40;99.90
9949;DHT22;5013;51.840;8.276;2023-11-19T06:14:42;11.40;99.90
9949;DHT22;5013;51.840;8.276;2023-11-19T06:17:08;11.40;99.90
9949;DHT22;5013;51.840;8.276;2023-11-19T06:19:36;11.40;99.90
9949;DHT22;5013;51.840;8.276;2023-11-19T06:22:02;11.40;99.90
9949;DHT22;5013;51.840;8.276;2023-11-19T06:24:27;11.40;99.90
9949;DHT22;5013;51.840;8.276;2023-11-19T06:26:53;11.50;99.90
9949;DHT22;5013;51.840;8.276;2023-11-19T06:29:19;11.60;88.70
9949;DHT22;5013;51.840;8.276;2023-11-19T06:31:45;11.60;72.70
9949;DHT22;5013;51.840;8.276;2023-11-19T06:34:11;11.50;1.00
9949;DHT22;5013;51.840;8.276;2023-11-19T06:36:36;11.60;1.00
9949;DHT22;5013;51.840;8.276;2023-11-19T06:39:03;11.70;1.00
9949;DHT22;5013;51.840;8.276;2023-11-19T06:41:29;11.60;1.00
9949;DHT22;5013;51.840;8.276;2023-11-19T06:43:55;11.60;1.00
9949;DHT22;5013;51.840;8.276;2023-11-19T06:46:20;11.60;1.00
9949;DHT22;5013;51.840;8.276;2023-11-19T06:48:46;11.50;1.00
9949;DHT22;5013;51.840;8.276;2023-11-19T06:51:12;11.50;1.00
9949;DHT22;5013;51.840;8.276;2023-11-19T06:53:38;11.50;1.00
9949;DHT22;5013;51.840;8.276;2023-11-19T06:56:05;11.40;1.00
9949;DHT22;5013;51.840;8.276;2023-11-19T06:58:32;11.40;1.00
9949;DHT22;5013;51.840;8.276;2023-11-19T07:00:59;11.40;1.00
9949;DHT22;5013;51.840;8.276;2023-11-19T07:03:25;11.40;1.00
9949;DHT22;5013;51.840;8.276;2023-11-19T07:05:51;11.30;1.00
9949;DHT22;5013;51.840;8.276;2023-11-19T07:08:17;11.30;1.00
9949;DHT22;5013;51.840;8.276;2023-11-19T07:10:42;11.20;1.00
9949;DHT22;5013;51.840;8.276;2023-11-19T07:13:08;11.20;1.00
9949;DHT22;5013;51.840;8.276;2023-11-19T07:15:33;11.30;1.00
9949;DHT22;5013;51.840;8.276;2023-11-19T07:17:59;11.40;1.00
9949;DHT22;5013;51.840;8.276;2023-11-19T07:20:25;11.50;1.00
9949;DHT22;5013;51.840;8.276;2023-11-19T07:22:52;11.50;1.00
9949;DHT22;5013;51.840;8.276;2023-11-19T07:25:17;11.50;1.00
9949;DHT22;5013;51.840;8.276;2023-11-19T07:27:43;11.60;1.00
9949;DHT22;5013;51.840;8.276;2023-11-19T07:30:09;11.60;99.90
9949;DHT22;5013;51.840;8.276;2023-11-19T07:32:34;11.60;1.00
9949;DHT22;5013;51.840;8.276;2023-11-19T07:35:00;11.60;1.00
9949;DHT22;5013;51.840;8.276;2023-11-19T07:37:26;11.60;1.00
9949;DHT22;5013;51.840;8.276;2023-11-19T07:39:51;11.60;1.00
9949;DHT22;5013;51.840;8.276;2023-11-19T07:42:17;11.60;1.00
9949;DHT22;5013;51.840;8.276;2023-11-19T07:44:46;11.60;1.00
9949;DHT22;5013;51.840;8.276;2023-11-19T07:47:12;11.60;1.00
9949;DHT22;5013;51.840;8.276;2023-11-19T07:49:38;11.60;1.00
9949;DHT22;5013;51.840;8.276;2023-11-19T07:52:04;11.60;1.00
9949;DHT22;5013;51.840;8.276;2023-11-19T07:54:29;11.60;1.00
9949;DHT22;5013;51.840;8.276;2023-11-19T07:56:55;11.70;1.00
9949;DHT22;5013;51.840;8.276;2023-11-19T07:59:21;11.80;1.00
9949;DHT22;5013;51.840;8.276;2023-11-19T08:01:46;11.80;1.00
9949;DHT22;5013;51.840;8.276;2023-11-19T08:04:13;11.70;1.00
9949;DHT22;5013;51.840;8.276;2023-11-19T08:06:39;11.80;99.90
9949;DHT22;5013;51.840;8.276;2023-11-19T08:09:05;11.80;99.90
9949;DHT22;5013;51.840;8.276;2023-11-19T08:11:31;11.80;99.90
9949;DHT22;5013;51.840;8.276;2023-11-19T08:13:57;11.80;99.90
9949;DHT22;5013;51.840;8.276;2023-11-19T08:16:22;11.80;99.90
9949;DHT22;5013;51.840;8.276;2023-11-19T08:18:48;11.80;99.90
9949;DHT22;5013;51.840;8.276;2023-11-19T08:21:13;11.70;99.90
9949;DHT22;5013;51.840;8.276;2023-11-19T08:23:40;11.70;99.90
9949;DHT22;5013;51.840;8.276;2023-11-19T08:26:06;11.70;1.00
9949;DHT22;5013;51.840;8.276;2023-11-19T08:28:31;11.70;1.00
9949;DHT22;5013;51.840;8.276;2023-11-19T08:30:59;11.80;1.00
9949;DHT22;5013;51.840;8.276;2023-11-19T08:33:26;11.80;1.00
9949;DHT22;5013;51.840;8.276;2023-11-19T08:35:51;11.80;1.00
9949;DHT22;5013;51.840;8.276;2023-11-19T08:38:17;11.90;1.00
9949;DHT22;5013;51.840;8.276;2023-11-19T08:40:42;11.90;1.00
9949;DHT22;5013;51.840;8.276;2023-11-19T08:43:08;11.90;99.90
9949;DHT22;5013;51.840;8.276;2023-11-19T08:45:33;11.90;99.90
9949;DHT22;5013;51.840;8.276;2023-11-19T08:47:59;12.00;99.90
9949;DHT22;5013;51.840;8.276;2023-11-19T08:50:24;12.00;99.90
9949;DHT22;5013;51.840;8.276;2023-11-19T08:52:50;12.10;99.90
9949;DHT22;5013;51.840;8.276;2023-11-19T08:55:15;12.00;99.90
9949;DHT22;5013;51.840;8.276;2023-11-19T08:57:42;11.90;99.90
9949;DHT22;5013;51.840;8.276;2023-11-19T09:00:07;12.00;99.90
9949;DHT22;5013;51.840;8.276;2023-11-19T09:02:34;12.00;99.90
9949;DHT22;5013;51.840;8.276;2023-11-19T09:05:00;12.00;99.90
9949;DHT22;5013;51.840;8.276;2023-11-19T09:07:27;11.90;19.90
9949;DHT22;5013;51.840;8.276;2023-11-19T09:09:52;12.00;1.00
9949;DHT22;5013;51.840;8.276;2023-11-19T09:12:18;12.10;74.80
9949;DHT22;5013;51.840;8.276;2023-11-19T09:14:43;12.00;1.00
9949;DHT22;5013;51.840;8.276;2023-11-19T09:17:11;12.00;1.00
9949;DHT22;5013;51.840;8.276;2023-11-19T09:19:36;12.00;1.00
9949;DHT22;5013;51.840;8.276;2023-11-19T09:22:02;12.00;1.00
9949;DHT22;5013;51.840;8.276;2023-11-19T09:24:28;12.10;1.00
9949;DHT22;5013;51.840;8.276;2023-11-19T09:26:53;12.10;1.00
9949;DHT22;5013;51.840;8.276;2023-11-19T09:29:20;12.10;1.00
9949;DHT22;5013;51.840;8.276;2023-11-19T09:31:46;12.10;1.00
9949;DHT22;5013;51.840;8.276;2023-11-19T09:34:12;12.30;1.00
9949;DHT22;5013;51.840;8.276;2023-11-19T09:36:38;12.30;1.00
9949;DHT22;5013;51.840;8.276;2023-11-19T09:39:04;12.30;1.00
9949;DHT22;5013;51.840;8.276;2023-11-19T09:41:31;12.20;1.00
9949;DHT22;5013;51.840;8.276;2023-11-19T09:43:58;12.20;1.00
9949;DHT22;5013;51.840;8.276;2023-11-19T09:46:23;12.10;1.00
9949;DHT22;5013;51.840;8.276;2023-11-19T09:48:53;12.10;1.00
9949;DHT22;5013;51.840;8.276;2023-11-19T09:51:20;12.10;1.00
9949;DHT22;5013;51.840;8.276;2023-11-19T09:53:46;12.10;1.00
9949;DHT22;5013;51.840;8.276;2023-11-19T09:56:12;12.10;1.00
9949;DHT22;5013;51.840;8.276;2023-11-19T09:58:38;12.20;1.00
9949;DHT22;5013;51.840;8.276;2023-11-19T10:01:04;12.30;1.00
9949;DHT22;5013;51.840;8.276;2023-11-19T10:03:33;12.30;1.00
9949;DHT22;5013;51.840;8.276;2023-11-19T10:06:04;12.40;1.00
9949;DHT22;5013;51.840;8.276;2023-11-19T10:08:32;12.50;1.00
9949;DHT22;5013;51.840;8.276;2023-11-19T10:10:57;12.60;99.90
9949;DHT22;5013;51.840;8.276;2023-11-19T10:13:28;12.60;5.10
9949;DHT22;5013;51.840;8.276;2023-11-19T10:15:55;12.60;99.90
9949;DHT22;5013;51.840;8.276;2023-11-19T10:18:26;12.60;99.90
9949;DHT22;5013;51.840;8.276;2023-11-19T10:20:52;12.60;99.90
9949;DHT22;5013;51.840;8.276;2023-11-19T10:23:17;12.60;40.40
9949;DHT22;5013;51.840;8.276;2023-11-19T10:25:43;12.70;99.90
9949;DHT22;5013;51.840;8.276;2023-11-19T10:28:08;12.60;99.90
9949;DHT22;5013;51.840;8.276;2023-11-19T10:30:34;12.60;99.90
9949;DHT22;5013;51.840;8.276;2023-11-19T10:33:04;12.60;93.10
9949;DHT22;5013;51.840;8.276;2023-11-19T10:35:50;12.70;99.90
9949;DHT22;5013;51.840;8.276;2023-11-19T10:38:17;12.60;56.90
9949;DHT22;5013;51.840;8.276;2023-11-19T10:40:43;12.70;1.00
9949;DHT22;5013;51.840;8.276;2023-11-19T10:43:09;12.80;68.30
9949;DHT22;5013;51.840;8.276;2023-11-19T10:45:38;12.90;99.90
9949;DHT22;5013;51.840;8.276;2023-11-19T10:48:05;12.90;99.90
9949;DHT22;5013;51.840;8.276;2023-11-19T10:50:34;12.90;99.90
9949;DHT22;5013;51.840;8.276;2023-11-19T10:53:01;12.90;99.90
9949;DHT22;5013;51.840;8.276;2023-11-19T10:55:30;12.80;99.90
9949;DHT22;5013;51.840;8.276;2023-11-19T10:58:11;12.80;1.00
9949;DHT22;5013;51.840;8.276;2023-11-19T11:00:45;12.80;1.00
9949;DHT22;5013;51.840;8.276;2023-11-19T11:03:21;12.70;38.30
9949;DHT22;5013;51.840;8.276;2023-11-19T11:05:52;12.70;1.00
9949;DHT22;5013;51.840;8.276;2023-11-19T11:08:19;12.70;1.00
9949;DHT22;5013;51.840;8.276;2023-11-19T11:10:54;12.70;99.90
9949;DHT22;5013;51.840;8.276;2023-11-19T11:13:20;12.70;70.80
9949;DHT22;5013;51.840;8.276;2023-11-19T11:15:48;12.80;1.00
9949;DHT22;5013;51.840;8.276;2023-11-19T11:18:15;12.70;1.00
9949;DHT22;5013;51.840;8.276;2023-11-19T11:20:41;12.70;99.90
9949;DHT22;5013;51.840;8.276;2023-11-19T11:23:24;12.60;81.50
9949;DHT22;5013;51.840;8.276;2023-11-19T11:28:56;12.50;1.00
9949;DHT22;5013;51.840;8.276;2023-11-19T11:31:39;12.40;1.00
9949;DHT22;5013;51.840;8.276;2023-11-19T11:39:36;12.50;1.00
9949;DHT22;5013;51.840;8.276;2023-11-19T11:50:10;12.70;99.90
9949;DHT22;5013;51.840;8.276;2023-11-19T11:57:49;12.70;99.90
9949;DHT22;5013;51.840;8.276;2023-11-19T12:00:22;12.70;18.50
9949;DHT22;5013;51.840;8.276;2023-11-19T12:02:48;12.80;1.00
9949;DHT22;5013;51.840;8.276;2023-11-19T12:05:18;12.80;1.00
9949;DHT22;5013;51.840;8.276;2023-11-19T12:07:55;12.90;1.00
9949;DHT22;5013;51.840;8.276;2023-11-19T12:10:21;12.90;1.00
9949;DHT22;5013;51.840;8.276;2023-11-19T12:12:47;13.00;1.00
9949;DHT22;5013;51.840;8.276;2023-11-19T12:15:13;13.00;1.00
9949;DHT22;5013;51.840;8.276;2023-11-19T12:17:49;13.00;1.00
9949;DHT22;5013;51.840;8.276;2023-11-19T12:20:23;13.20;1.00
9949;DHT22;5013;51.840;8.276;2023-11-19T12:22:50;13.30;99.90
9949;DHT22;5013;51.840;8.276;2023-11-19T12:25:16;13.60;1.00
9949;DHT22;5013;51.840;8.276;2023-11-19T12:27:44;13.60;1.00
9949;DHT22;5013;51.840;8.276;2023-11-19T12:30:11;13.60;99.90
9949;DHT22;5013;51.840;8.276;2023-11-19T12:32:44;13.40;1.00
9949;DHT22;5013;51.840;8.276;2023-11-19T12:35:10;13.40;1.00
9949;DHT22;5013;51.840;8.276;2023-11-19T12:42:37;13.00;1.00
9949;DHT22;5013;51.840;8.276;2023-11-19T12:45:04;12.90;1.00
9949;DHT22;5013;51.840;8.276;2023-11-19T12:47:30;12.80;62.90
9949;DHT22;5013;51.840;8.276;2023-11-19T12:49:56;12.80;1.00
9949;DHT22;5013;51.840;8.276;2023-11-19T12:52:22;12.60;99.90
9949;DHT22;5013;51.840;8.276;2023-11-19T12:54:49;12.50;1.00
9949;DHT22;5013;51.840;8.276;2023-11-19T12:57:15;12.30;1.00
9949;DHT22;5013;51.840;8.276;2023-11-19T12:59:41;12.20;1.00
9949;DHT22;5013;51.840;8.276;2023-11-19T13:02:07;12.10;9.30
9949;DHT22;5013;51.840;8.276;2023-11-19T13:04:33;12.00;1.00
9949;DHT22;5013;51.840;8.276;2023-11-19T13:06:59;12.10;98.50
9949;DHT22;5013;51.840;8.276;2023-11-19T13:09:28;12.20;96.00
9949;DHT22;5013;51.840;8.276;2023-11-19T13:11:55;12.20;99.90
9949;DHT22;5013;51.840;8.276;2023-11-19T13:14:22;12.30;61.60
9949;DHT22;5013;51.840;8.276;2023-11-19T13:16:49;12.30;52.10
9949;DHT22;5013;51.840;8.276;2023-11-19T13:19:15;12.30;1.00
9949;DHT22;5013;51.840;8.276;2023-11-19T13:21:45;12.40;1.00
9949;DHT22;5013;51.840;8.276;2023-11-19T13:24:13;12.20;1.00
9949;DHT22;5013;51.840;8.276;2023-11-19T13:26:39;12.10;39.00
9949;DHT22;5013;51.840;8.276;2023-11-19T13:29:04;12.30;1.00
9949;DHT22;5013;51.840;8.276;2023-11-19T13:31:30;12.10;1.00
9949;DHT22;5013;51.840;8.276;2023-11-19T13:33:56;12.10;1.00
9949;DHT22;5013;51.840;8.276;2023-11-19T13:36:25;12.20;1.00
9949;DHT22;5013;51.840;8.276;2023-11-19T13:38:51;12.10;1.00
9949;DHT22;5013;51.840;8.276;2023-11-19T13:41:17;12.20;1.00
9949;DHT22;5013;51.840;8.276;2023-11-19T13:43:42;12.20;1.00
9949;DHT22;5013;51.840;8.276;2023-11-19T13:46:08;12.20;1.00
9949;DHT22;5013;51.840;8.276;2023-11-19T13:48:37;12.30;1.00
9949;DHT22;5013;51.840;8.276;2023-11-19T13:51:02;12.30;99.90
9949;DHT22;5013;51.840;8.276;2023-11-19T13:53:28;12.30;99.90
9949;DHT22;5013;51.840;8.276;2023-11-19T13:55:53;12.20;99.90
9949;DHT22;5013;51.840;8.276;2023-11-19T13:58:19;12.20;99.90
9949;DHT22;5013;51.840;8.276;2023-11-19T14:00:45;12.20;99.90
9949;DHT22;5013;51.840;8.276;2023-11-19T14:03:11;12.20;99.90
9949;DHT22;5013;51.840;8.276;2023-11-19T14:05:37;12.10;99.90
9949;DHT22;5013;51.840;8.276;2023-11-19T14:08:03;12.10;99.90
9949;DHT22;5013;51.840;8.276;2023-11-19T14:10:29;12.10;96.50
9949;DHT22;5013;51.840;8.276;2023-11-19T14:12:54;12.10;47.80
9949;DHT22;5013;51.840;8.276;2023-11-19T14:15:20;12.10;99.90
9949;DHT22;5013;51.840;8.276;2023-11-19T14:17:45;12.10;1.00
9949;DHT22;5013;51.840;8.276;2023-11-19T14:20:11;12.10;1.00
9949;DHT22;5013;51.840;8.276;2023-11-19T14:22:44;12.20;1.00
9949;DHT22;5013;51.840;8.276;2023-11-19T14:25:11;12.10;1.00
9949;DHT22;5013;51.840;8.276;2023-11-19T14:27:37;12.10;1.00
9949;DHT22;5013;51.840;8.276;2023-11-19T14:30:05;12.10;1.00
9949;DHT22;5013;51.840;8.276;2023-11-19T14:32:31;12.10;1.00
9949;DHT22;5013;51.840;8.276;2023-11-19T14:34:57;12.10;6.20
9949;DHT22;5013;51.840;8.276;2023-11-19T14:37:22;12.10;1.00
9949;DHT22;5013;51.840;8.276;2023-11-19T14:39:48;12.10;1.00
9949;DHT22;5013;51.840;8.276;2023-11-19T14:42:16;12.20;1.00
9949;DHT22;5013;51.840;8.276;2023-11-19T14:44:42;12.20;1.00
9949;DHT22;5013;51.840;8.276;2023-11-19T14:47:07;12.20;1.00
9949;DHT22;5013;51.840;8.276;2023-11-19T14:49:35;12.10;77.10
9949;DHT22;5013;51.840;8.276;2023-11-19T14:52:00;12.00;99.90
9949;DHT22;5013;51.840;8.276;2023-11-19T14:54:26;12.00;99.90
9949;DHT22;5013;51.840;8.276;2023-11-19T14:56:52;11.90;99.90
9949;DHT22;5013;51.840;8.276;2023-11-19T14:59:18;11.80;99.90
9949;DHT22;5013;51.840;8.276;2023-11-19T15:01:47;11.80;1.00
9949;DHT22;5013;51.840;8.276;2023-11-19T15:04:13;11.70;1.00
9949;DHT22;5013;51.840;8.276;2023-11-19T15:06:38;11.70;1.00
9949;DHT22;5013;51.840;8.276;2023-11-19T15:09:04;11.70;1.00
9949;DHT22;5013;51.840;8.276;2023-11-19T15:11:30;11.70;1.00
9949;DHT22;5013;51.840;8.276;2023-11-19T15:13:56;11.70;1.00
9949;DHT22;5013;51.840;8.276;2023-11-19T15:16:22;11.70;1.00
9949;DHT22;5013;51.840;8.276;2023-11-19T15:18:57;11.70;1.00
9949;DHT22;5013;51.840;8.276;2023-11-19T15:21:25;11.60;1.00
9949;DHT22;5013;51.840;8.276;2023-11-19T15:23:51;11.60;1.00
9949;DHT22;5013;51.840;8.276;2023-11-19T15:26:17;11.60;1.00
9949;DHT22;5013;51.840;8.276;2023-11-19T15:28:43;11.50;1.00
9949;DHT22;5013;51.840;8.276;2023-11-19T15:31:08;11.50;1.00
9949;DHT22;5013;51.840;8.276;2023-11-19T15:33:35;11.50;1.00
9949;DHT22;5013;51.840;8.276;2023-11-19T15:36:00;11.50;1.00
9949;DHT22;5013;51.840;8.276;2023-11-19T15:38:28;11.50;1.00
9949;DHT22;5013;51.840;8.276;2023-11-19T15:40:54;11.50;1.00
9949;DHT22;5013;51.840;8.276;2023-11-19T15:43:20;11.50;1.00
9949;DHT22;5013;51.840;8.276;2023-11-19T15:45:46;11.60;1.00
9949;DHT22;5013;51.840;8.276;2023-11-19T15:48:11;11.60;1.00
9949;DHT22;5013;51.840;8.276;2023-11-19T15:50:39;11.60;1.00
9949;DHT22;5013;51.840;8.276;2023-11-19T15:53:04;11.60;1.00
9949;DHT22;5013;51.840;8.276;2023-11-19T15:55:30;11.60;1.00
9949;DHT22;5013;51.840;8.276;2023-11-19T15:57:56;11.60;1.00
9949;DHT22;5013;51.840;8.276;2023-11-19T16:00:21;11.60;1.00
9949;DHT22;5013;51.840;8.276;2023-11-19T16:02:48;11.60;1.00
9949;DHT22;5013;51.840;8.276;2023-11-19T16:05:15;11.60;1.00
9949;DHT22;5013;51.840;8.276;2023-11-19T16:07:41;11.60;1.00
9949;DHT22;5013;51.840;8.276;2023-11-19T16:10:07;11.60;1.00
9949;DHT22;5013;51.840;8.276;2023-11-19T16:12:35;11.60;1.00
9949;DHT22;5013;51.840;8.276;2023-11-19T16:15:01;11.60;1.00
9949;DHT22;5013;51.840;8.276;2023-11-19T16:17:26;11.70;1.00
9949;DHT22;5013;51.840;8.276;2023-11-19T16:19:55;11.60;1.00
9949;DHT22;5013;51.840;8.276;2023-11-19T16:22:21;11.60;1.00
9949;DHT22;5013;51.840;8.276;2023-11-19T16:24:47;11.60;1.00
9949;DHT22;5013;51.840;8.276;2023-11-19T16:27:14;11.60;1.00
9949;DHT22;5013;51.840;8.276;2023-11-19T16:29:40;11.60;1.00
9949;DHT22;5013;51.840;8.276;2023-11-19T16:32:06;11.60;1.00
9949;DHT22;5013;51.840;8.276;2023-11-19T16:34:32;11.60;1.00